PDT,Max TemperatureF,Mean TemperatureF,Min TemperatureF,Max Dew PointF,MeanDew PointF,Min DewpointF,Max Humidity, Mean Humidity, Min Humidity, Max Sea Level PressureIn, Mean Sea Level PressureIn, Min Sea Level PressureIn, Max VisibilityMiles, Mean VisibilityMiles, Min VisibilityMiles, Max Wind SpeedMPH, Mean Wind SpeedMPH, Max Gust SpeedMPH,PrecipitationIn, CloudCover, Events, WindDirDegrees
2011-9-1,95,76,57,55,50,43,83,49,19,29.84,29.79,29.73,10,10,9,9,5,,0.00,0,,300
2011-9-2,99,80,60,50,44,35,67,36,11,29.87,29.81,29.77,10,10,10,8,2,,0.00,0,,204
2011-9-3,93,75,57,54,51,49,72,45,21,29.87,29.81,29.78,10,10,10,10,2,,0.00,0,,219
2011-9-4,93,73,55,55,51,48,80,51,26,29.88,29.84,29.78,10,10,10,12,6,,0.00,0,,214
2011-9-5,91,73,55,54,50,47,74,46,23,29.91,29.86,29.83,10,10,10,10,6,,0.00,0,,205
2011-9-6,97,75,54,55,48,38,77,43,14,29.97,29.92,29.88,10,10,10,8,1,,0.00,0,,192
2011-9-7,100,78,57,50,43,29,72,36,13,30.01,29.95,29.91,10,10,10,12,2,,0.00,0,,235
2011-9-8,98,78,57,54,46,29,58,34,18,30.03,29.95,29.88,10,10,2,9,2,,0.00,0,,164
2011-9-9,98,78,59,57,53,50,75,46,21,29.87,29.79,29.67,10,10,10,8,2,,0.00,0,,182
2011-9-10,93,78,63,56,52,47,70,42,22,29.77,29.72,29.68,10,10,10,16,5,22,0.00,0,,217
2011-9-11,82,72,64,57,55,52,66,56,42,29.99,29.90,29.79,10,10,10,18,11,26,0.00,0,,211
2011-9-12,89,76,62,57,55,53,75,55,32,30.06,30.00,29.96,10,10,10,12,4,,0.00,0,,233
2011-9-13,93,76,61,59,57,54,78,51,30,30.04,29.98,29.90,10,9,0,9,4,,0.00,0,,212
2011-9-14,90,76,62,58,55,51,78,57,29,29.92,29.85,29.77,10,10,10,12,7,,0.00,0,,213
2011-9-15,81,69,57,53,53,49,81,63,33,29.86,29.81,29.76,10,10,10,15,9,24,0.00,0,,209
2011-9-16,82,66,52,54,52,49,89,64,36,29.92,29.87,29.81,10,10,9,17,5,22,0.00,0,,214
2011-9-17,86,68,53,53,51,49,86,58,33,30.04,29.98,29.92,10,10,10,9,4,,0.00,0,,249
2011-9-18,93,74,55,52,49,45,77,44,19,30.08,30.01,29.94,10,10,10,7,1,,0.00,0,,197
2011-9-19,96,76,57,53,50,47,77,45,20,30.02,29.95,29.87,10,10,10,6,2,,0.00,0,,355
2011-9-20,100,79,59,52,50,47,72,43,17,29.95,29.88,29.81,10,10,10,8,2,,0.00,0,,254
2011-9-21,100,80,60,52,48,43,69,37,16,29.90,29.85,29.81,10,10,10,8,1,,0.00,0,,220
2011-9-22,99,79,60,54,51,48,69,43,20,29.94,29.89,29.85,10,10,10,8,1,,0.00,0,,160
2011-9-23,99,80,62,54,50,40,67,39,15,29.98,29.90,29.82,10,10,10,9,2,,0.00,0,,253
2011-9-24,86,72,61,55,52,45,70,50,29,29.92,29.85,29.79,10,10,10,17,7,26,0.00,0,,208
2011-9-25,71,63,55,61,55,50,90,75,61,30.04,29.98,29.91,10,10,5,14,9,20,0.01,3,Rain,212
2011-9-26,82,66,52,58,52,49,89,67,42,30.07,30.01,29.94,10,10,10,8,1,,0.00,1,,169
2011-9-27,90,72,54,54,51,46,77,50,23,30.05,29.98,29.93,10,10,10,6,1,,0.00,0,,120
2011-9-28,93,75,57,54,52,50,78,49,23,30.00,29.94,29.88,10,10,10,6,1,,0.00,0,,347
2011-9-29,95,76,59,59,54,50,75,52,28,29.90,29.85,29.78,10,10,10,13,3,21,0.00,0,,197
2011-9-30,80,69,59,54,52,51,78,57,39,29.93,29.88,29.83,10,10,10,17,10,25,0.00,0,,214